sensor_id;sensor_type;location;lat;lon;timestamp;P1;durP1;ratioP1;P2;durP2;ratioP2
54247;SDS011;40161;39.768;2.722;2022-07-29T00:00:42;4.78;;;2.05;;
54247;SDS011;40161;39.768;2.722;2022-07-29T00:03:13;4.47;;;2.15;;
54247;SDS011;40161;39.768;2.722;2022-07-29T00:05:39;4.63;;;2.22;;
54247;SDS011;40161;39.768;2.722;2022-07-29T00:08:06;4.95;;;2.25;;
54247;SDS011;40161;39.768;2.722;2022-07-29T00:10:33;6.40;;;2.42;;
54247;SDS011;40161;39.768;2.722;2022-07-29T00:13:00;4.50;;;1.92;;
54247;SDS011;40161;39.768;2.722;2022-07-29T00:15:25;5.53;;;2.72;;
54247;SDS011;40161;39.768;2.722;2022-07-29T00:17:51;5.35;;;2.25;;
54247;SDS011;40161;39.768;2.722;2022-07-29T00:20:17;5.88;;;2.50;;
54247;SDS011;40161;39.768;2.722;2022-07-29T00:22:43;4.53;;;2.08;;
54247;SDS011;40161;39.768;2.722;2022-07-29T00:25:08;4.80;;;2.03;;
54247;SDS011;40161;39.768;2.722;2022-07-29T00:27:34;4.55;;;2.22;;
54247;SDS011;40161;39.768;2.722;2022-07-29T00:30:02;6.65;;;2.42;;
54247;SDS011;40161;39.768;2.722;2022-07-29T00:32:28;4.38;;;2.30;;
54247;SDS011;40161;39.768;2.722;2022-07-29T00:34:54;5.65;;;2.33;;
54247;SDS011;40161;39.768;2.722;2022-07-29T00:37:38;6.97;;;2.42;;
54247;SDS011;40161;39.768;2.722;2022-07-29T00:40:04;5.65;;;2.67;;
54247;SDS011;40161;39.768;2.722;2022-07-29T00:42:30;6.38;;;2.38;;
54247;SDS011;40161;39.768;2.722;2022-07-29T00:44:56;4.78;;;2.25;;
54247;SDS011;40161;39.768;2.722;2022-07-29T00:47:21;4.30;;;2.53;;
54247;SDS011;40161;39.768;2.722;2022-07-29T00:49:47;6.20;;;2.45;;
54247;SDS011;40161;39.768;2.722;2022-07-29T00:52:13;5.25;;;2.60;;
54247;SDS011;40161;39.768;2.722;2022-07-29T00:54:39;5.63;;;2.70;;
54247;SDS011;40161;39.768;2.722;2022-07-29T00:57:08;5.75;;;2.42;;
54247;SDS011;40161;39.768;2.722;2022-07-29T00:59:34;6.25;;;2.60;;
54247;SDS011;40161;39.768;2.722;2022-07-29T01:01:59;5.70;;;2.40;;
54247;SDS011;40161;39.768;2.722;2022-07-29T01:04:25;5.13;;;2.03;;
54247;SDS011;40161;39.768;2.722;2022-07-29T01:06:51;4.28;;;2.10;;
54247;SDS011;40161;39.768;2.722;2022-07-29T01:09:19;4.93;;;2.50;;
54247;SDS011;40161;39.768;2.722;2022-07-29T01:11:45;5.20;;;2.55;;
54247;SDS011;40161;39.768;2.722;2022-07-29T01:14:13;5.78;;;2.60;;
54247;SDS011;40161;39.768;2.722;2022-07-29T01:16:51;5.72;;;2.60;;
54247;SDS011;40161;39.768;2.722;2022-07-29T01:22:34;4.97;;;2.47;;
54247;SDS011;40161;39.768;2.722;2022-07-29T01:30:32;5.07;;;2.50;;
54247;SDS011;40161;39.768;2.722;2022-07-29T01:33:02;7.53;;;2.53;;
54247;SDS011;40161;39.768;2.722;2022-07-29T01:35:33;6.07;;;2.47;;
54247;SDS011;40161;39.768;2.722;2022-07-29T01:38:13;6.65;;;2.63;;
54247;SDS011;40161;39.768;2.722;2022-07-29T01:43:18;7.53;;;2.85;;
54247;SDS011;40161;39.768;2.722;2022-07-29T01:46:20;5.40;;;2.40;;
54247;SDS011;40161;39.768;2.722;2022-07-29T01:48:45;5.55;;;2.35;;
54247;SDS011;40161;39.768;2.722;2022-07-29T01:51:25;5.80;;;2.78;;
54247;SDS011;40161;39.768;2.722;2022-07-29T01:54:30;5.67;;;2.60;;
54247;SDS011;40161;39.768;2.722;2022-07-29T01:57:01;5.55;;;2.53;;
54247;SDS011;40161;39.768;2.722;2022-07-29T01:59:31;5.93;;;2.70;;
54247;SDS011;40161;39.768;2.722;2022-07-29T02:02:00;4.28;;;2.38;;
54247;SDS011;40161;39.768;2.722;2022-07-29T02:04:26;8.45;;;2.75;;
54247;SDS011;40161;39.768;2.722;2022-07-29T02:06:54;6.32;;;2.90;;
54247;SDS011;40161;39.768;2.722;2022-07-29T02:09:24;5.40;;;2.67;;
54247;SDS011;40161;39.768;2.722;2022-07-29T02:11:52;6.00;;;3.15;;
54247;SDS011;40161;39.768;2.722;2022-07-29T02:14:21;6.38;;;2.63;;
54247;SDS011;40161;39.768;2.722;2022-07-29T02:16:48;5.38;;;2.40;;
54247;SDS011;40161;39.768;2.722;2022-07-29T02:22:40;6.35;;;2.75;;
54247;SDS011;40161;39.768;2.722;2022-07-29T02:28:29;5.07;;;2.70;;
54247;SDS011;40161;39.768;2.722;2022-07-29T02:30:57;4.80;;;2.55;;
54247;SDS011;40161;39.768;2.722;2022-07-29T02:33:26;5.20;;;2.80;;
54247;SDS011;40161;39.768;2.722;2022-07-29T02:35:52;4.28;;;2.50;;
54247;SDS011;40161;39.768;2.722;2022-07-29T02:41:43;6.00;;;2.60;;
54247;SDS011;40161;39.768;2.722;2022-07-29T02:47:39;5.13;;;3.03;;
54247;SDS011;40161;39.768;2.722;2022-07-29T03:01:43;5.72;;;2.40;;
54247;SDS011;40161;39.768;2.722;2022-07-29T03:04:11;5.45;;;2.75;;
54247;SDS011;40161;39.768;2.722;2022-07-29T03:06:37;4.32;;;2.40;;
54247;SDS011;40161;39.768;2.722;2022-07-29T03:09:06;4.63;;;2.40;;
54247;SDS011;40161;39.768;2.722;2022-07-29T03:11:32;4.80;;;2.60;;
54247;SDS011;40161;39.768;2.722;2022-07-29T03:13:59;5.43;;;2.40;;
54247;SDS011;40161;39.768;2.722;2022-07-29T03:16:25;4.53;;;2.40;;
54247;SDS011;40161;39.768;2.722;2022-07-29T03:18:51;4.97;;;2.47;;
54247;SDS011;40161;39.768;2.722;2022-07-29T03:21:18;6.57;;;2.95;;
54247;SDS011;40161;39.768;2.722;2022-07-29T03:23:44;5.55;;;2.63;;
54247;SDS011;40161;39.768;2.722;2022-07-29T03:26:12;5.22;;;2.70;;
54247;SDS011;40161;39.768;2.722;2022-07-29T03:28:38;5.35;;;2.45;;
54247;SDS011;40161;39.768;2.722;2022-07-29T03:31:04;6.38;;;2.63;;
54247;SDS011;40161;39.768;2.722;2022-07-29T03:33:30;5.82;;;2.95;;
54247;SDS011;40161;39.768;2.722;2022-07-29T03:35:56;5.07;;;2.78;;
54247;SDS011;40161;39.768;2.722;2022-07-29T03:38:23;6.10;;;2.90;;
54247;SDS011;40161;39.768;2.722;2022-07-29T03:41:03;4.57;;;2.67;;
54247;SDS011;40161;39.768;2.722;2022-07-29T03:43:36;5.78;;;2.80;;
54247;SDS011;40161;39.768;2.722;2022-07-29T03:46:09;4.78;;;2.90;;
54247;SDS011;40161;39.768;2.722;2022-07-29T03:48:36;7.22;;;2.83;;
54247;SDS011;40161;39.768;2.722;2022-07-29T03:51:07;9.02;;;2.83;;
54247;SDS011;40161;39.768;2.722;2022-07-29T03:53:33;4.55;;;2.40;;
54247;SDS011;40161;39.768;2.722;2022-07-29T03:56:00;4.72;;;2.58;;
54247;SDS011;40161;39.768;2.722;2022-07-29T03:58:27;5.32;;;2.47;;
54247;SDS011;40161;39.768;2.722;2022-07-29T04:00:55;4.88;;;2.63;;
54247;SDS011;40161;39.768;2.722;2022-07-29T04:03:21;5.13;;;2.75;;
54247;SDS011;40161;39.768;2.722;2022-07-29T04:06:21;5.20;;;2.95;;
54247;SDS011;40161;39.768;2.722;2022-07-29T04:08:39;6.55;;;2.80;;
54247;SDS011;40161;39.768;2.722;2022-07-29T04:11:05;6.28;;;2.65;;
54247;SDS011;40161;39.768;2.722;2022-07-29T04:13:31;5.50;;;2.67;;
54247;SDS011;40161;39.768;2.722;2022-07-29T04:15:58;7.22;;;2.90;;
54247;SDS011;40161;39.768;2.722;2022-07-29T04:18:24;4.38;;;2.90;;
54247;SDS011;40161;39.768;2.722;2022-07-29T04:20:50;6.28;;;2.95;;
54247;SDS011;40161;39.768;2.722;2022-07-29T04:23:16;7.13;;;2.88;;
54247;SDS011;40161;39.768;2.722;2022-07-29T04:25:42;6.43;;;2.55;;
54247;SDS011;40161;39.768;2.722;2022-07-29T04:28:07;5.25;;;3.05;;
54247;SDS011;40161;39.768;2.722;2022-07-29T04:30:34;7.10;;;2.97;;
54247;SDS011;40161;39.768;2.722;2022-07-29T04:33:02;5.35;;;2.95;;
54247;SDS011;40161;39.768;2.722;2022-07-29T04:35:29;6.13;;;2.50;;
54247;SDS011;40161;39.768;2.722;2022-07-29T04:37:55;5.35;;;2.47;;
54247;SDS011;40161;39.768;2.722;2022-07-29T04:40:21;6.53;;;2.90;;
54247;SDS011;40161;39.768;2.722;2022-07-29T04:42:46;6.05;;;2.70;;
54247;SDS011;40161;39.768;2.722;2022-07-29T04:45:12;5.65;;;2.50;;
54247;SDS011;40161;39.768;2.722;2022-07-29T04:47:38;7.65;;;3.15;;
54247;SDS011;40161;39.768;2.722;2022-07-29T04:50:03;4.97;;;2.83;;
54247;SDS011;40161;39.768;2.722;2022-07-29T04:52:30;5.78;;;2.88;;
54247;SDS011;40161;39.768;2.722;2022-07-29T04:54:56;7.28;;;3.22;;
54247;SDS011;40161;39.768;2.722;2022-07-29T04:57:22;6.05;;;3.10;;
54247;SDS011;40161;39.768;2.722;2022-07-29T04:59:47;4.60;;;2.80;;
54247;SDS011;40161;39.768;2.722;2022-07-29T05:02:13;5.78;;;2.50;;
54247;SDS011;40161;39.768;2.722;2022-07-29T05:04:39;6.05;;;2.67;;
54247;SDS011;40161;39.768;2.722;2022-07-29T05:07:04;6.40;;;2.90;;
54247;SDS011;40161;39.768;2.722;2022-07-29T05:09:30;7.85;;;2.80;;
54247;SDS011;40161;39.768;2.722;2022-07-29T05:11:57;7.15;;;3.45;;
54247;SDS011;40161;39.768;2.722;2022-07-29T05:14:22;5.90;;;3.25;;
54247;SDS011;40161;39.768;2.722;2022-07-29T05:16:48;7.30;;;3.50;;
54247;SDS011;40161;39.768;2.722;2022-07-29T05:19:16;6.88;;;3.38;;
54247;SDS011;40161;39.768;2.722;2022-07-29T05:21:42;9.02;;;3.50;;
54247;SDS011;40161;39.768;2.722;2022-07-29T05:24:07;11.10;;;3.65;;
54247;SDS011;40161;39.768;2.722;2022-07-29T05:26:33;10.18;;;3.35;;
54247;SDS011;40161;39.768;2.722;2022-07-29T05:28:58;8.95;;;3.50;;
54247;SDS011;40161;39.768;2.722;2022-07-29T05:31:24;6.03;;;2.90;;
54247;SDS011;40161;39.768;2.722;2022-07-29T05:33:49;6.25;;;2.83;;
54247;SDS011;40161;39.768;2.722;2022-07-29T05:36:15;7.03;;;3.22;;
54247;SDS011;40161;39.768;2.722;2022-07-29T05:38:40;7.93;;;3.50;;
54247;SDS011;40161;39.768;2.722;2022-07-29T05:41:06;7.72;;;3.28;;
54247;SDS011;40161;39.768;2.722;2022-07-29T05:43:32;9.52;;;3.70;;
54247;SDS011;40161;39.768;2.722;2022-07-29T05:45:58;10.30;;;5.10;;
54247;SDS011;40161;39.768;2.722;2022-07-29T05:48:24;9.57;;;4.55;;
54247;SDS011;40161;39.768;2.722;2022-07-29T05:50:50;10.82;;;4.80;;
54247;SDS011;40161;39.768;2.722;2022-07-29T05:53:15;7.22;;;3.80;;
54247;SDS011;40161;39.768;2.722;2022-07-29T05:55:41;7.90;;;3.88;;
54247;SDS011;40161;39.768;2.722;2022-07-29T05:58:06;6.80;;;4.22;;
54247;SDS011;40161;39.768;2.722;2022-07-29T06:00:32;10.85;;;4.35;;
54247;SDS011;40161;39.768;2.722;2022-07-29T06:02:58;11.43;;;4.78;;
54247;SDS011;40161;39.768;2.722;2022-07-29T06:05:23;7.32;;;4.10;;
54247;SDS011;40161;39.768;2.722;2022-07-29T06:07:49;8.73;;;4.68;;
54247;SDS011;40161;39.768;2.722;2022-07-29T06:10:14;10.98;;;4.57;;
54247;SDS011;40161;39.768;2.722;2022-07-29T06:12:40;9.57;;;5.90;;
54247;SDS011;40161;39.768;2.722;2022-07-29T06:15:05;7.55;;;4.70;;
54247;SDS011;40161;39.768;2.722;2022-07-29T06:17:31;8.43;;;4.28;;
54247;SDS011;40161;39.768;2.722;2022-07-29T06:19:57;9.15;;;4.07;;
54247;SDS011;40161;39.768;2.722;2022-07-29T06:22:22;9.73;;;4.82;;
54247;SDS011;40161;39.768;2.722;2022-07-29T06:24:48;7.70;;;3.75;;
54247;SDS011;40161;39.768;2.722;2022-07-29T06:27:14;9.00;;;3.75;;
54247;SDS011;40161;39.768;2.722;2022-07-29T06:29:41;8.65;;;4.70;;
54247;SDS011;40161;39.768;2.722;2022-07-29T06:32:06;7.43;;;4.65;;
54247;SDS011;40161;39.768;2.722;2022-07-29T06:34:34;9.95;;;4.50;;
54247;SDS011;40161;39.768;2.722;2022-07-29T06:37:00;7.18;;;4.65;;
54247;SDS011;40161;39.768;2.722;2022-07-29T06:39:26;7.38;;;4.65;;
54247;SDS011;40161;39.768;2.722;2022-07-29T06:41:52;10.80;;;5.05;;
54247;SDS011;40161;39.768;2.722;2022-07-29T06:44:19;7.97;;;4.15;;
54247;SDS011;40161;39.768;2.722;2022-07-29T06:46:45;10.23;;;5.00;;
54247;SDS011;40161;39.768;2.722;2022-07-29T06:49:14;8.07;;;4.70;;
54247;SDS011;40161;39.768;2.722;2022-07-29T06:51:39;8.98;;;4.35;;
54247;SDS011;40161;39.768;2.722;2022-07-29T06:54:05;13.07;;;4.90;;
54247;SDS011;40161;39.768;2.722;2022-07-29T06:56:31;12.13;;;4.30;;
54247;SDS011;40161;39.768;2.722;2022-07-29T06:58:58;10.15;;;4.55;;
54247;SDS011;40161;39.768;2.722;2022-07-29T07:01:24;8.95;;;4.20;;
54247;SDS011;40161;39.768;2.722;2022-07-29T07:03:50;8.77;;;4.53;;
54247;SDS011;40161;39.768;2.722;2022-07-29T07:06:15;8.93;;;3.83;;
54247;SDS011;40161;39.768;2.722;2022-07-29T07:08:41;8.88;;;3.72;;
54247;SDS011;40161;39.768;2.722;2022-07-29T07:11:06;8.57;;;4.32;;
54247;SDS011;40161;39.768;2.722;2022-07-29T07:13:32;8.90;;;4.32;;
54247;SDS011;40161;39.768;2.722;2022-07-29T07:16:00;7.95;;;4.38;;
54247;SDS011;40161;39.768;2.722;2022-07-29T07:18:26;12.80;;;5.13;;
54247;SDS011;40161;39.768;2.722;2022-07-29T07:20:53;10.30;;;4.40;;
54247;SDS011;40161;39.768;2.722;2022-07-29T07:23:18;8.48;;;3.72;;
54247;SDS011;40161;39.768;2.722;2022-07-29T07:25:44;8.35;;;3.28;;
54247;SDS011;40161;39.768;2.722;2022-07-29T07:28:10;13.45;;;3.33;;
54247;SDS011;40161;39.768;2.722;2022-07-29T07:30:35;7.25;;;3.20;;
54247;SDS011;40161;39.768;2.722;2022-07-29T07:33:01;8.68;;;3.20;;
54247;SDS011;40161;39.768;2.722;2022-07-29T07:35:27;8.90;;;3.33;;
54247;SDS011;40161;39.768;2.722;2022-07-29T07:37:54;11.77;;;3.60;;
54247;SDS011;40161;39.768;2.722;2022-07-29T07:40:20;5.63;;;3.08;;
54247;SDS011;40161;39.768;2.722;2022-07-29T07:42:46;10.55;;;3.38;;
54247;SDS011;40161;39.768;2.722;2022-07-29T07:45:12;9.43;;;3.30;;
54247;SDS011;40161;39.768;2.722;2022-07-29T07:47:38;11.52;;;3.50;;
54247;SDS011;40161;39.768;2.722;2022-07-29T07:50:05;6.50;;;2.90;;
54247;SDS011;40161;39.768;2.722;2022-07-29T07:52:32;8.45;;;3.05;;
54247;SDS011;40161;39.768;2.722;2022-07-29T07:54:58;8.77;;;3.30;;
54247;SDS011;40161;39.768;2.722;2022-07-29T07:57:23;7.55;;;2.90;;
54247;SDS011;40161;39.768;2.722;2022-07-29T07:59:49;6.72;;;3.10;;
54247;SDS011;40161;39.768;2.722;2022-07-29T08:02:14;8.73;;;3.70;;
54247;SDS011;40161;39.768;2.722;2022-07-29T08:04:40;8.93;;;3.20;;
54247;SDS011;40161;39.768;2.722;2022-07-29T08:07:06;7.80;;;2.90;;
54247;SDS011;40161;39.768;2.722;2022-07-29T08:09:33;6.93;;;2.92;;
54247;SDS011;40161;39.768;2.722;2022-07-29T08:12:00;7.32;;;3.15;;
54247;SDS011;40161;39.768;2.722;2022-07-29T08:14:29;10.30;;;3.00;;
54247;SDS011;40161;39.768;2.722;2022-07-29T08:16:55;5.13;;;2.65;;
54247;SDS011;40161;39.768;2.722;2022-07-29T08:19:20;6.45;;;2.50;;
54247;SDS011;40161;39.768;2.722;2022-07-29T08:21:46;8.15;;;2.88;;
54247;SDS011;40161;39.768;2.722;2022-07-29T08:24:11;7.28;;;2.78;;
54247;SDS011;40161;39.768;2.722;2022-07-29T08:26:56;8.85;;;3.10;;
54247;SDS011;40161;39.768;2.722;2022-07-29T08:29:21;6.30;;;2.90;;
54247;SDS011;40161;39.768;2.722;2022-07-29T08:31:47;9.20;;;3.08;;
54247;SDS011;40161;39.768;2.722;2022-07-29T08:34:12;8.95;;;2.92;;
54247;SDS011;40161;39.768;2.722;2022-07-29T08:36:38;5.85;;;2.60;;
54247;SDS011;40161;39.768;2.722;2022-07-29T08:39:04;9.43;;;3.67;;
54247;SDS011;40161;39.768;2.722;2022-07-29T08:41:29;9.52;;;2.97;;
54247;SDS011;40161;39.768;2.722;2022-07-29T08:43:56;6.57;;;3.15;;
54247;SDS011;40161;39.768;2.722;2022-07-29T08:46:22;7.05;;;2.67;;
54247;SDS011;40161;39.768;2.722;2022-07-29T08:48:48;9.98;;;3.00;;
54247;SDS011;40161;39.768;2.722;2022-07-29T08:51:14;8.73;;;3.75;;
54247;SDS011;40161;39.768;2.722;2022-07-29T08:53:42;10.57;;;5.05;;
54247;SDS011;40161;39.768;2.722;2022-07-29T08:56:12;7.32;;;3.05;;
54247;SDS011;40161;39.768;2.722;2022-07-29T08:58:38;8.95;;;3.13;;
54247;SDS011;40161;39.768;2.722;2022-07-29T09:01:04;8.45;;;3.10;;
54247;SDS011;40161;39.768;2.722;2022-07-29T09:03:33;6.18;;;2.80;;
54247;SDS011;40161;39.768;2.722;2022-07-29T09:06:02;8.70;;;2.70;;
54247;SDS011;40161;39.768;2.722;2022-07-29T09:08:30;8.27;;;3.03;;
54247;SDS011;40161;39.768;2.722;2022-07-29T09:10:56;7.97;;;2.70;;
54247;SDS011;40161;39.768;2.722;2022-07-29T09:13:23;7.00;;;2.67;;
54247;SDS011;40161;39.768;2.722;2022-07-29T09:15:50;6.95;;;2.63;;
54247;SDS011;40161;39.768;2.722;2022-07-29T09:21:08;6.03;;;2.58;;
54247;SDS011;40161;39.768;2.722;2022-07-29T09:24:01;7.55;;;2.97;;
54247;SDS011;40161;39.768;2.722;2022-07-29T09:26:33;9.65;;;2.67;;
54247;SDS011;40161;39.768;2.722;2022-07-29T09:31:40;9.55;;;3.00;;
54247;SDS011;40161;39.768;2.722;2022-07-29T09:34:07;8.38;;;3.00;;
54247;SDS011;40161;39.768;2.722;2022-07-29T09:36:53;7.38;;;3.00;;
54247;SDS011;40161;39.768;2.722;2022-07-29T09:41:59;9.75;;;2.92;;
54247;SDS011;40161;39.768;2.722;2022-07-29T09:44:26;6.70;;;2.40;;
54247;SDS011;40161;39.768;2.722;2022-07-29T09:46:56;8.38;;;3.03;;
54247;SDS011;40161;39.768;2.722;2022-07-29T09:49:23;7.32;;;2.50;;
54247;SDS011;40161;39.768;2.722;2022-07-29T09:52:00;7.45;;;2.70;;
54247;SDS011;40161;39.768;2.722;2022-07-29T09:54:30;10.60;;;3.08;;
54247;SDS011;40161;39.768;2.722;2022-07-29T09:57:02;7.07;;;2.80;;
54247;SDS011;40161;39.768;2.722;2022-07-29T09:59:29;10.32;;;2.63;;
54247;SDS011;40161;39.768;2.722;2022-07-29T10:01:55;8.50;;;2.70;;
54247;SDS011;40161;39.768;2.722;2022-07-29T10:04:21;8.85;;;2.83;;
54247;SDS011;40161;39.768;2.722;2022-07-29T10:09:25;9.88;;;3.00;;
54247;SDS011;40161;39.768;2.722;2022-07-29T10:14:34;9.30;;;3.22;;
54247;SDS011;40161;39.768;2.722;2022-07-29T10:17:00;9.48;;;3.10;;
54247;SDS011;40161;39.768;2.722;2022-07-29T10:19:28;7.63;;;3.10;;
54247;SDS011;40161;39.768;2.722;2022-07-29T10:21:56;6.38;;;2.50;;
54247;SDS011;40161;39.768;2.722;2022-07-29T10:24:27;8.98;;;3.38;;
54247;SDS011;40161;39.768;2.722;2022-07-29T10:26:54;8.43;;;3.17;;
54247;SDS011;40161;39.768;2.722;2022-07-29T10:29:21;6.97;;;3.08;;
54247;SDS011;40161;39.768;2.722;2022-07-29T10:31:52;10.65;;;3.15;;
54247;SDS011;40161;39.768;2.722;2022-07-29T10:34:48;6.53;;;2.92;;
54247;SDS011;40161;39.768;2.722;2022-07-29T10:43:35;6.78;;;2.78;;
54247;SDS011;40161;39.768;2.722;2022-07-29T10:46:03;6.22;;;2.80;;
54247;SDS011;40161;39.768;2.722;2022-07-29T10:48:29;7.07;;;3.08;;
54247;SDS011;40161;39.768;2.722;2022-07-29T10:50:59;6.13;;;2.97;;
54247;SDS011;40161;39.768;2.722;2022-07-29T10:56:29;10.88;;;4.22;;
54247;SDS011;40161;39.768;2.722;2022-07-29T11:01:51;9.18;;;3.13;;
54247;SDS011;40161;39.768;2.722;2022-07-29T11:07:10;8.63;;;3.30;;
54247;SDS011;40161;39.768;2.722;2022-07-29T11:09:37;7.45;;;3.22;;
54247;SDS011;40161;39.768;2.722;2022-07-29T11:12:04;4.93;;;2.92;;
54247;SDS011;40161;39.768;2.722;2022-07-29T11:14:59;7.38;;;3.20;;
54247;SDS011;40161;39.768;2.722;2022-07-29T11:17:26;8.48;;;3.50;;
54247;SDS011;40161;39.768;2.722;2022-07-29T11:20:30;7.50;;;3.53;;
54247;SDS011;40161;39.768;2.722;2022-07-29T11:22:56;6.63;;;2.97;;
54247;SDS011;40161;39.768;2.722;2022-07-29T11:25:21;8.23;;;3.33;;
54247;SDS011;40161;39.768;2.722;2022-07-29T11:27:47;9.00;;;3.50;;
54247;SDS011;40161;39.768;2.722;2022-07-29T11:30:13;7.05;;;3.22;;
54247;SDS011;40161;39.768;2.722;2022-07-29T11:32:43;8.93;;;3.55;;
54247;SDS011;40161;39.768;2.722;2022-07-29T11:35:10;9.77;;;3.60;;
54247;SDS011;40161;39.768;2.722;2022-07-29T11:37:38;6.72;;;3.55;;
54247;SDS011;40161;39.768;2.722;2022-07-29T11:44:56;6.30;;;3.10;;
54247;SDS011;40161;39.768;2.722;2022-07-29T11:47:22;7.85;;;2.95;;
54247;SDS011;40161;39.768;2.722;2022-07-29T11:49:49;6.15;;;3.17;;
54247;SDS011;40161;39.768;2.722;2022-07-29T11:52:16;9.07;;;3.50;;
54247;SDS011;40161;39.768;2.722;2022-07-29T11:54:43;7.20;;;3.25;;
54247;SDS011;40161;39.768;2.722;2022-07-29T11:57:10;6.97;;;3.47;;
54247;SDS011;40161;39.768;2.722;2022-07-29T11:59:39;9.90;;;3.50;;
54247;SDS011;40161;39.768;2.722;2022-07-29T12:02:06;7.82;;;3.50;;
54247;SDS011;40161;39.768;2.722;2022-07-29T12:04:33;11.43;;;3.90;;
54247;SDS011;40161;39.768;2.722;2022-07-29T12:06:59;9.43;;;3.50;;
54247;SDS011;40161;39.768;2.722;2022-07-29T12:09:25;8.32;;;3.63;;
54247;SDS011;40161;39.768;2.722;2022-07-29T12:11:57;7.03;;;3.25;;
54247;SDS011;40161;39.768;2.722;2022-07-29T12:14:28;7.20;;;3.53;;
54247;SDS011;40161;39.768;2.722;2022-07-29T12:16:55;8.77;;;3.20;;
54247;SDS011;40161;39.768;2.722;2022-07-29T12:19:21;7.93;;;3.38;;
54247;SDS011;40161;39.768;2.722;2022-07-29T12:21:48;8.45;;;3.28;;
54247;SDS011;40161;39.768;2.722;2022-07-29T12:24:15;7.63;;;3.50;;
54247;SDS011;40161;39.768;2.722;2022-07-29T12:29:21;9.93;;;3.22;;
54247;SDS011;40161;39.768;2.722;2022-07-29T12:31:51;6.70;;;3.28;;
54247;SDS011;40161;39.768;2.722;2022-07-29T12:34:19;5.85;;;3.10;;
54247;SDS011;40161;39.768;2.722;2022-07-29T12:36:48;8.10;;;3.60;;
54247;SDS011;40161;39.768;2.722;2022-07-29T12:39:15;6.75;;;2.95;;
54247;SDS011;40161;39.768;2.722;2022-07-29T12:41:42;8.00;;;3.05;;
54247;SDS011;40161;39.768;2.722;2022-07-29T12:44:09;5.68;;;2.78;;
54247;SDS011;40161;39.768;2.722;2022-07-29T12:46:35;7.60;;;3.08;;
54247;SDS011;40161;39.768;2.722;2022-07-29T12:49:01;7.00;;;3.17;;
54247;SDS011;40161;39.768;2.722;2022-07-29T12:51:33;7.25;;;2.92;;
54247;SDS011;40161;39.768;2.722;2022-07-29T12:54:03;8.60;;;3.28;;
54247;SDS011;40161;39.768;2.722;2022-07-29T12:56:39;9.52;;;2.92;;
54247;SDS011;40161;39.768;2.722;2022-07-29T12:59:16;6.55;;;3.22;;
54247;SDS011;40161;39.768;2.722;2022-07-29T13:01:47;10.20;;;3.70;;
54247;SDS011;40161;39.768;2.722;2022-07-29T13:04:27;10.15;;;3.47;;
54247;SDS011;40161;39.768;2.722;2022-07-29T13:07:06;8.30;;;3.28;;
54247;SDS011;40161;39.768;2.722;2022-07-29T13:09:38;8.38;;;3.78;;
54247;SDS011;40161;39.768;2.722;2022-07-29T13:12:10;6.75;;;3.22;;
54247;SDS011;40161;39.768;2.722;2022-07-29T13:14:41;7.85;;;3.30;;
54247;SDS011;40161;39.768;2.722;2022-07-29T13:17:13;9.80;;;3.38;;
54247;SDS011;40161;39.768;2.722;2022-07-29T13:22:11;8.20;;;3.20;;
54247;SDS011;40161;39.768;2.722;2022-07-29T13:27:22;6.90;;;3.10;;
54247;SDS011;40161;39.768;2.722;2022-07-29T13:29:50;8.57;;;3.60;;
54247;SDS011;40161;39.768;2.722;2022-07-29T13:32:17;10.65;;;3.50;;
54247;SDS011;40161;39.768;2.722;2022-07-29T13:34:44;7.97;;;3.25;;
54247;SDS011;40161;39.768;2.722;2022-07-29T13:37:09;7.55;;;3.03;;
54247;SDS011;40161;39.768;2.722;2022-07-29T13:39:35;7.30;;;2.70;;
54247;SDS011;40161;39.768;2.722;2022-07-29T13:42:02;7.15;;;3.00;;
54247;SDS011;40161;39.768;2.722;2022-07-29T13:44:28;8.73;;;3.40;;
54247;SDS011;40161;39.768;2.722;2022-07-29T13:46:54;7.68;;;3.00;;
54247;SDS011;40161;39.768;2.722;2022-07-29T13:49:20;7.80;;;3.22;;
54247;SDS011;40161;39.768;2.722;2022-07-29T13:51:46;6.90;;;3.10;;
54247;SDS011;40161;39.768;2.722;2022-07-29T13:54:11;9.60;;;3.10;;
54247;SDS011;40161;39.768;2.722;2022-07-29T13:56:37;7.45;;;3.47;;
54247;SDS011;40161;39.768;2.722;2022-07-29T13:59:03;8.32;;;3.30;;
54247;SDS011;40161;39.768;2.722;2022-07-29T14:01:28;7.70;;;3.40;;
54247;SDS011;40161;39.768;2.722;2022-07-29T14:03:55;9.73;;;3.10;;
54247;SDS011;40161;39.768;2.722;2022-07-29T14:06:20;6.63;;;3.00;;
54247;SDS011;40161;39.768;2.722;2022-07-29T14:08:46;6.65;;;3.05;;
54247;SDS011;40161;39.768;2.722;2022-07-29T14:11:12;5.70;;;2.85;;
54247;SDS011;40161;39.768;2.722;2022-07-29T14:13:37;8.05;;;3.00;;
54247;SDS011;40161;39.768;2.722;2022-07-29T14:16:03;6.97;;;3.00;;
54247;SDS011;40161;39.768;2.722;2022-07-29T14:18:28;6.80;;;2.97;;
54247;SDS011;40161;39.768;2.722;2022-07-29T14:20:54;8.88;;;3.08;;
54247;SDS011;40161;39.768;2.722;2022-07-29T14:23:19;9.27;;;3.53;;
54247;SDS011;40161;39.768;2.722;2022-07-29T14:25:46;5.63;;;2.88;;
54247;SDS011;40161;39.768;2.722;2022-07-29T14:28:11;9.00;;;3.03;;
54247;SDS011;40161;39.768;2.722;2022-07-29T14:30:38;8.35;;;3.03;;
54247;SDS011;40161;39.768;2.722;2022-07-29T14:33:03;5.82;;;3.20;;
54247;SDS011;40161;39.768;2.722;2022-07-29T14:38:51;5.53;;;2.90;;
54247;SDS011;40161;39.768;2.722;2022-07-29T14:41:16;5.47;;;2.80;;
54247;SDS011;40161;39.768;2.722;2022-07-29T14:43:42;7.53;;;2.95;;
54247;SDS011;40161;39.768;2.722;2022-07-29T14:46:07;6.85;;;3.00;;
54247;SDS011;40161;39.768;2.722;2022-07-29T14:48:33;6.65;;;2.88;;
54247;SDS011;40161;39.768;2.722;2022-07-29T14:50:58;7.30;;;3.10;;
54247;SDS011;40161;39.768;2.722;2022-07-29T14:53:24;6.22;;;3.25;;
54247;SDS011;40161;39.768;2.722;2022-07-29T14:55:49;7.63;;;3.38;;
54247;SDS011;40161;39.768;2.722;2022-07-29T14:58:15;6.85;;;3.10;;
54247;SDS011;40161;39.768;2.722;2022-07-29T15:00:41;7.03;;;3.05;;
54247;SDS011;40161;39.768;2.722;2022-07-29T15:03:06;8.25;;;3.13;;
54247;SDS011;40161;39.768;2.722;2022-07-29T15:05:34;8.57;;;3.47;;
54247;SDS011;40161;39.768;2.722;2022-07-29T15:08:00;6.75;;;3.20;;
54247;SDS011;40161;39.768;2.722;2022-07-29T15:10:25;8.50;;;3.50;;
54247;SDS011;40161;39.768;2.722;2022-07-29T15:12:52;7.32;;;2.97;;
54247;SDS011;40161;39.768;2.722;2022-07-29T15:15:18;8.50;;;3.08;;
54247;SDS011;40161;39.768;2.722;2022-07-29T15:17:43;8.05;;;2.80;;
54247;SDS011;40161;39.768;2.722;2022-07-29T15:20:09;7.85;;;2.97;;
54247;SDS011;40161;39.768;2.722;2022-07-29T15:22:36;7.50;;;3.38;;
54247;SDS011;40161;39.768;2.722;2022-07-29T15:25:03;6.63;;;3.10;;
54247;SDS011;40161;39.768;2.722;2022-07-29T15:27:29;7.68;;;3.10;;
54247;SDS011;40161;39.768;2.722;2022-07-29T15:29:55;6.97;;;3.38;;
54247;SDS011;40161;39.768;2.722;2022-07-29T15:32:21;7.40;;;3.22;;
54247;SDS011;40161;39.768;2.722;2022-07-29T15:34:46;8.43;;;3.25;;
54247;SDS011;40161;39.768;2.722;2022-07-29T15:37:12;6.95;;;3.13;;
54247;SDS011;40161;39.768;2.722;2022-07-29T15:39:37;6.68;;;2.88;;
54247;SDS011;40161;39.768;2.722;2022-07-29T15:42:03;8.20;;;3.10;;
54247;SDS011;40161;39.768;2.722;2022-07-29T15:44:29;5.68;;;2.80;;
54247;SDS011;40161;39.768;2.722;2022-07-29T15:46:55;10.18;;;3.60;;
54247;SDS011;40161;39.768;2.722;2022-07-29T15:49:33;8.38;;;3.30;;
54247;SDS011;40161;39.768;2.722;2022-07-29T15:52:02;10.73;;;3.30;;
54247;SDS011;40161;39.768;2.722;2022-07-29T15:54:33;6.63;;;2.90;;
54247;SDS011;40161;39.768;2.722;2022-07-29T15:57:00;9.45;;;5.15;;
54247;SDS011;40161;39.768;2.722;2022-07-29T15:59:26;6.55;;;2.92;;
54247;SDS011;40161;39.768;2.722;2022-07-29T16:01:52;8.80;;;3.10;;
54247;SDS011;40161;39.768;2.722;2022-07-29T16:04:17;9.60;;;3.30;;
54247;SDS011;40161;39.768;2.722;2022-07-29T16:06:44;6.55;;;2.95;;
54247;SDS011;40161;39.768;2.722;2022-07-29T16:09:11;10.55;;;3.00;;